sensor_id;sensor_type;location;lat;lon;timestamp;temperature;humidity
37528;DHT22;23372;52.050;4.810;2023-08-21T00:00:35;17.80;99.90
37528;DHT22;23372;52.050;4.810;2023-08-21T00:03:01;17.90;99.90
37528;DHT22;23372;52.050;4.810;2023-08-21T00:05:26;17.90;99.90
37528;DHT22;23372;52.050;4.810;2023-08-21T00:07:52;17.90;99.90
37528;DHT22;23372;52.050;4.810;2023-08-21T00:10:17;17.90;99.90
37528;DHT22;23372;52.050;4.810;2023-08-21T00:12:43;17.90;99.90
37528;DHT22;23372;52.050;4.810;2023-08-21T00:15:09;17.90;99.90
37528;DHT22;23372;52.050;4.810;2023-08-21T00:17:35;18.10;99.90
37528;DHT22;23372;52.050;4.810;2023-08-21T00:20:01;18.10;99.90
37528;DHT22;23372;52.050;4.810;2023-08-21T00:22:27;18.10;99.90
37528;DHT22;23372;52.050;4.810;2023-08-21T00:24:52;18.10;99.90
37528;DHT22;23372;52.050;4.810;2023-08-21T00:27:18;18.10;99.90
37528;DHT22;23372;52.050;4.810;2023-08-21T00:29:44;18.10;99.90
37528;DHT22;23372;52.050;4.810;2023-08-21T00:32:09;18.10;99.90
37528;DHT22;23372;52.050;4.810;2023-08-21T00:34:37;18.20;99.90
37528;DHT22;23372;52.050;4.810;2023-08-21T00:37:02;18.10;99.90
37528;DHT22;23372;52.050;4.810;2023-08-21T00:39:28;18.10;99.90
37528;DHT22;23372;52.050;4.810;2023-08-21T00:41:54;18.10;99.90
37528;DHT22;23372;52.050;4.810;2023-08-21T00:44:19;18.20;99.90
37528;DHT22;23372;52.050;4.810;2023-08-21T00:46:45;18.10;99.90
37528;DHT22;23372;52.050;4.810;2023-08-21T00:49:11;18.10;99.90
37528;DHT22;23372;52.050;4.810;2023-08-21T00:51:37;18.00;99.90
37528;DHT22;23372;52.050;4.810;2023-08-21T00:54:02;18.00;99.90
37528;DHT22;23372;52.050;4.810;2023-08-21T00:56:29;17.90;99.90
37528;DHT22;23372;52.050;4.810;2023-08-21T00:58:55;17.90;99.90
37528;DHT22;23372;52.050;4.810;2023-08-21T01:01:23;17.80;99.90
37528;DHT22;23372;52.050;4.810;2023-08-21T01:03:50;17.80;99.90
37528;DHT22;23372;52.050;4.810;2023-08-21T01:06:15;17.80;99.90
37528;DHT22;23372;52.050;4.810;2023-08-21T01:08:53;17.70;99.90
37528;DHT22;23372;52.050;4.810;2023-08-21T01:11:26;17.80;99.90
37528;DHT22;23372;52.050;4.810;2023-08-21T01:16:24;17.60;99.90
37528;DHT22;23372;52.050;4.810;2023-08-21T01:18:51;17.60;99.90
37528;DHT22;23372;52.050;4.810;2023-08-21T01:21:18;17.60;99.90
37528;DHT22;23372;52.050;4.810;2023-08-21T01:23:44;17.50;99.90
37528;DHT22;23372;52.050;4.810;2023-08-21T01:26:10;17.50;99.90
37528;DHT22;23372;52.050;4.810;2023-08-21T01:28:35;17.40;99.90
37528;DHT22;23372;52.050;4.810;2023-08-21T01:31:18;17.50;99.90
37528;DHT22;23372;52.050;4.810;2023-08-21T01:34:06;17.40;99.90
37528;DHT22;23372;52.050;4.810;2023-08-21T01:36:32;17.40;99.90
37528;DHT22;23372;52.050;4.810;2023-08-21T01:38:58;17.30;99.90
37528;DHT22;23372;52.050;4.810;2023-08-21T01:41:24;17.30;99.90
37528;DHT22;23372;52.050;4.810;2023-08-21T01:43:50;17.30;99.90
37528;DHT22;23372;52.050;4.810;2023-08-21T01:46:16;17.30;99.90
37528;DHT22;23372;52.050;4.810;2023-08-21T01:48:41;17.40;99.90
37528;DHT22;23372;52.050;4.810;2023-08-21T01:51:07;17.30;99.90
37528;DHT22;23372;52.050;4.810;2023-08-21T01:53:33;17.40;99.90
37528;DHT22;23372;52.050;4.810;2023-08-21T01:55:58;17.30;99.90
37528;DHT22;23372;52.050;4.810;2023-08-21T01:58:24;17.30;99.90
37528;DHT22;23372;52.050;4.810;2023-08-21T02:00:49;17.40;99.90
37528;DHT22;23372;52.050;4.810;2023-08-21T02:03:15;17.30;99.90
37528;DHT22;23372;52.050;4.810;2023-08-21T02:05:41;17.30;99.90
37528;DHT22;23372;52.050;4.810;2023-08-21T02:08:13;17.30;99.90
37528;DHT22;23372;52.050;4.810;2023-08-21T02:10:50;17.40;99.90
37528;DHT22;23372;52.050;4.810;2023-08-21T02:13:17;17.40;99.90
37528;DHT22;23372;52.050;4.810;2023-08-21T02:15:43;17.20;99.90
37528;DHT22;23372;52.050;4.810;2023-08-21T02:18:08;17.30;99.90
37528;DHT22;23372;52.050;4.810;2023-08-21T02:20:34;17.30;99.90
37528;DHT22;23372;52.050;4.810;2023-08-21T02:23:00;17.10;99.90
37528;DHT22;23372;52.050;4.810;2023-08-21T02:25:25;17.20;99.90
37528;DHT22;23372;52.050;4.810;2023-08-21T02:27:51;17.10;99.90
37528;DHT22;23372;52.050;4.810;2023-08-21T02:30:16;17.10;99.90
37528;DHT22;23372;52.050;4.810;2023-08-21T02:32:42;17.00;99.90
37528;DHT22;23372;52.050;4.810;2023-08-21T02:35:08;17.00;99.90
37528;DHT22;23372;52.050;4.810;2023-08-21T02:37:34;17.00;99.90
37528;DHT22;23372;52.050;4.810;2023-08-21T02:40:00;16.90;99.90
37528;DHT22;23372;52.050;4.810;2023-08-21T02:42:26;16.90;99.90
37528;DHT22;23372;52.050;4.810;2023-08-21T02:44:51;16.90;99.90
37528;DHT22;23372;52.050;4.810;2023-08-21T02:47:17;17.00;99.90
37528;DHT22;23372;52.050;4.810;2023-08-21T02:49:42;16.90;99.90
37528;DHT22;23372;52.050;4.810;2023-08-21T02:52:08;17.00;99.90
37528;DHT22;23372;52.050;4.810;2023-08-21T02:54:34;17.00;99.90
37528;DHT22;23372;52.050;4.810;2023-08-21T02:56:59;17.10;99.90
37528;DHT22;23372;52.050;4.810;2023-08-21T02:59:25;17.00;99.90
37528;DHT22;23372;52.050;4.810;2023-08-21T03:01:50;17.00;99.90
37528;DHT22;23372;52.050;4.810;2023-08-21T03:04:16;17.00;99.90
37528;DHT22;23372;52.050;4.810;2023-08-21T03:06:41;17.00;99.90
37528;DHT22;23372;52.050;4.810;2023-08-21T03:09:07;16.90;99.90
37528;DHT22;23372;52.050;4.810;2023-08-21T03:11:33;16.90;99.90
37528;DHT22;23372;52.050;4.810;2023-08-21T03:13:58;16.90;99.90
37528;DHT22;23372;52.050;4.810;2023-08-21T03:16:24;17.00;99.90
37528;DHT22;23372;52.050;4.810;2023-08-21T03:18:57;16.90;99.90
37528;DHT22;23372;52.050;4.810;2023-08-21T03:21:23;16.90;99.90
37528;DHT22;23372;52.050;4.810;2023-08-21T03:23:55;16.90;99.90
37528;DHT22;23372;52.050;4.810;2023-08-21T03:26:21;16.80;99.90
37528;DHT22;23372;52.050;4.810;2023-08-21T03:28:47;16.90;99.90
37528;DHT22;23372;52.050;4.810;2023-08-21T03:31:12;16.90;99.90
37528;DHT22;23372;52.050;4.810;2023-08-21T03:33:38;16.80;99.90
37528;DHT22;23372;52.050;4.810;2023-08-21T03:36:04;17.00;99.90
37528;DHT22;23372;52.050;4.810;2023-08-21T03:38:29;16.90;99.90
37528;DHT22;23372;52.050;4.810;2023-08-21T03:40:55;16.80;99.90
37528;DHT22;23372;52.050;4.810;2023-08-21T03:43:20;16.80;99.90
37528;DHT22;23372;52.050;4.810;2023-08-21T03:45:46;16.70;99.90
37528;DHT22;23372;52.050;4.810;2023-08-21T03:48:12;16.70;99.90
37528;DHT22;23372;52.050;4.810;2023-08-21T03:50:38;16.70;99.90
37528;DHT22;23372;52.050;4.810;2023-08-21T03:53:04;16.80;99.90
37528;DHT22;23372;52.050;4.810;2023-08-21T03:55:29;16.70;99.90
37528;DHT22;23372;52.050;4.810;2023-08-21T03:57:56;16.60;99.90
37528;DHT22;23372;52.050;4.810;2023-08-21T04:00:22;16.60;99.90
37528;DHT22;23372;52.050;4.810;2023-08-21T04:02:47;16.60;99.90
37528;DHT22;23372;52.050;4.810;2023-08-21T04:05:13;16.50;99.90
37528;DHT22;23372;52.050;4.810;2023-08-21T04:07:38;16.70;99.90
37528;DHT22;23372;52.050;4.810;2023-08-21T04:10:05;16.70;99.90
37528;DHT22;23372;52.050;4.810;2023-08-21T04:12:31;16.60;99.90
37528;DHT22;23372;52.050;4.810;2023-08-21T04:14:56;16.70;99.90
37528;DHT22;23372;52.050;4.810;2023-08-21T04:17:22;16.60;99.90
37528;DHT22;23372;52.050;4.810;2023-08-21T04:19:49;16.60;99.90
37528;DHT22;23372;52.050;4.810;2023-08-21T04:22:14;16.50;99.90
37528;DHT22;23372;52.050;4.810;2023-08-21T04:24:41;16.60;99.90
37528;DHT22;23372;52.050;4.810;2023-08-21T04:27:06;16.60;99.90
37528;DHT22;23372;52.050;4.810;2023-08-21T04:29:32;16.60;99.90
37528;DHT22;23372;52.050;4.810;2023-08-21T04:31:57;16.70;99.90
37528;DHT22;23372;52.050;4.810;2023-08-21T04:34:23;16.60;99.90
37528;DHT22;23372;52.050;4.810;2023-08-21T04:36:48;16.70;99.90
37528;DHT22;23372;52.050;4.810;2023-08-21T04:39:14;16.80;99.90
37528;DHT22;23372;52.050;4.810;2023-08-21T04:41:41;16.80;99.90
37528;DHT22;23372;52.050;4.810;2023-08-21T04:44:07;16.70;99.90
37528;DHT22;23372;52.050;4.810;2023-08-21T04:46:32;16.80;99.90
37528;DHT22;23372;52.050;4.810;2023-08-21T04:48:58;16.80;99.90
37528;DHT22;23372;52.050;4.810;2023-08-21T04:51:24;16.70;99.90
37528;DHT22;23372;52.050;4.810;2023-08-21T04:53:49;16.70;99.90
37528;DHT22;23372;52.050;4.810;2023-08-21T04:56:15;16.60;99.90
37528;DHT22;23372;52.050;4.810;2023-08-21T04:58:41;16.70;99.90
37528;DHT22;23372;52.050;4.810;2023-08-21T05:01:06;16.80;99.90
37528;DHT22;23372;52.050;4.810;2023-08-21T05:03:32;16.80;99.90
37528;DHT22;23372;52.050;4.810;2023-08-21T05:05:57;16.80;99.90
37528;DHT22;23372;52.050;4.810;2023-08-21T05:08:24;16.80;99.90
37528;DHT22;23372;52.050;4.810;2023-08-21T05:10:57;16.80;99.90
37528;DHT22;23372;52.050;4.810;2023-08-21T05:13:23;16.90;99.90
37528;DHT22;23372;52.050;4.810;2023-08-21T05:15:56;16.90;99.90
37528;DHT22;23372;52.050;4.810;2023-08-21T05:18:23;16.80;99.90
37528;DHT22;23372;52.050;4.810;2023-08-21T05:20:49;16.90;99.90
37528;DHT22;23372;52.050;4.810;2023-08-21T05:23:15;17.00;99.90
37528;DHT22;23372;52.050;4.810;2023-08-21T05:25:42;17.00;99.90
37528;DHT22;23372;52.050;4.810;2023-08-21T05:28:08;16.90;99.90
37528;DHT22;23372;52.050;4.810;2023-08-21T05:30:36;17.00;99.90
37528;DHT22;23372;52.050;4.810;2023-08-21T05:33:02;17.20;99.90
37528;DHT22;23372;52.050;4.810;2023-08-21T05:35:27;17.10;99.90
37528;DHT22;23372;52.050;4.810;2023-08-21T05:37:53;17.20;99.90
37528;DHT22;23372;52.050;4.810;2023-08-21T05:40:18;17.20;99.90
37528;DHT22;23372;52.050;4.810;2023-08-21T05:42:44;17.30;99.90
37528;DHT22;23372;52.050;4.810;2023-08-21T05:45:10;17.50;99.90
37528;DHT22;23372;52.050;4.810;2023-08-21T05:47:36;17.40;99.90
37528;DHT22;23372;52.050;4.810;2023-08-21T05:50:01;17.60;99.90
37528;DHT22;23372;52.050;4.810;2023-08-21T05:52:27;17.60;99.90
37528;DHT22;23372;52.050;4.810;2023-08-21T05:54:53;17.80;99.90
37528;DHT22;23372;52.050;4.810;2023-08-21T05:57:18;17.70;99.90
37528;DHT22;23372;52.050;4.810;2023-08-21T05:59:47;17.90;99.90
37528;DHT22;23372;52.050;4.810;2023-08-21T06:02:13;18.00;99.90
37528;DHT22;23372;52.050;4.810;2023-08-21T06:04:43;18.00;99.90
37528;DHT22;23372;52.050;4.810;2023-08-21T06:07:09;18.10;99.90
37528;DHT22;23372;52.050;4.810;2023-08-21T06:09:35;18.20;99.90
37528;DHT22;23372;52.050;4.810;2023-08-21T06:12:04;18.20;99.90
37528;DHT22;23372;52.050;4.810;2023-08-21T06:14:30;18.20;99.90
37528;DHT22;23372;52.050;4.810;2023-08-21T06:17:00;18.40;99.90
37528;DHT22;23372;52.050;4.810;2023-08-21T06:19:27;18.40;99.90
37528;DHT22;23372;52.050;4.810;2023-08-21T06:21:53;18.50;99.90
37528;DHT22;23372;52.050;4.810;2023-08-21T06:24:19;18.60;99.90
37528;DHT22;23372;52.050;4.810;2023-08-21T06:26:44;18.70;99.90
37528;DHT22;23372;52.050;4.810;2023-08-21T06:29:10;18.90;99.90
37528;DHT22;23372;52.050;4.810;2023-08-21T06:31:36;19.10;99.90
37528;DHT22;23372;52.050;4.810;2023-08-21T06:34:01;19.40;99.90
37528;DHT22;23372;52.050;4.810;2023-08-21T06:36:27;20.50;99.90
37528;DHT22;23372;52.050;4.810;2023-08-21T06:38:52;21.90;99.90
37528;DHT22;23372;52.050;4.810;2023-08-21T06:41:18;22.80;99.90
37528;DHT22;23372;52.050;4.810;2023-08-21T06:43:43;23.00;99.90
37528;DHT22;23372;52.050;4.810;2023-08-21T06:46:09;22.60;99.90
37528;DHT22;23372;52.050;4.810;2023-08-21T06:48:38;22.00;99.90
37528;DHT22;23372;52.050;4.810;2023-08-21T06:51:05;21.80;99.90
37528;DHT22;23372;52.050;4.810;2023-08-21T06:53:31;21.50;99.90
37528;DHT22;23372;52.050;4.810;2023-08-21T06:55:56;21.20;99.90
37528;DHT22;23372;52.050;4.810;2023-08-21T06:58:22;21.00;99.90
37528;DHT22;23372;52.050;4.810;2023-08-21T07:00:47;21.10;99.90
37528;DHT22;23372;52.050;4.810;2023-08-21T07:03:13;21.50;99.90
37528;DHT22;23372;52.050;4.810;2023-08-21T07:05:38;22.50;99.90
37528;DHT22;23372;52.050;4.810;2023-08-21T07:08:04;23.90;99.90
37528;DHT22;23372;52.050;4.810;2023-08-21T07:10:36;26.10;99.90
37528;DHT22;23372;52.050;4.810;2023-08-21T07:13:02;28.30;99.90
37528;DHT22;23372;52.050;4.810;2023-08-21T07:15:29;29.70;99.90
37528;DHT22;23372;52.050;4.810;2023-08-21T07:17:54;30.90;99.90
37528;DHT22;23372;52.050;4.810;2023-08-21T07:20:21;31.80;99.90
37528;DHT22;23372;52.050;4.810;2023-08-21T07:22:47;33.00;99.90
37528;DHT22;23372;52.050;4.810;2023-08-21T07:25:12;33.80;99.90
37528;DHT22;23372;52.050;4.810;2023-08-21T07:27:38;33.90;99.90
37528;DHT22;23372;52.050;4.810;2023-08-21T07:30:05;34.60;99.90
37528;DHT22;23372;52.050;4.810;2023-08-21T07:32:31;35.20;99.90
37528;DHT22;23372;52.050;4.810;2023-08-21T07:34:57;35.80;99.90
37528;DHT22;23372;52.050;4.810;2023-08-21T07:37:22;35.70;99.90
37528;DHT22;23372;52.050;4.810;2023-08-21T07:39:48;36.50;99.90
37528;DHT22;23372;52.050;4.810;2023-08-21T07:42:13;37.10;99.90
37528;DHT22;23372;52.050;4.810;2023-08-21T07:44:39;37.30;99.90
37528;DHT22;23372;52.050;4.810;2023-08-21T07:47:05;37.30;99.90
37528;DHT22;23372;52.050;4.810;2023-08-21T07:49:32;37.60;99.90
37528;DHT22;23372;52.050;4.810;2023-08-21T07:51:57;37.90;99.90
37528;DHT22;23372;52.050;4.810;2023-08-21T07:54:23;37.80;99.90
37528;DHT22;23372;52.050;4.810;2023-08-21T07:56:50;38.10;99.90
37528;DHT22;23372;52.050;4.810;2023-08-21T07:59:15;38.80;99.90
37528;DHT22;23372;52.050;4.810;2023-08-21T08:01:41;39.10;99.90
37528;DHT22;23372;52.050;4.810;2023-08-21T08:04:07;39.00;99.90
37528;DHT22;23372;52.050;4.810;2023-08-21T08:06:32;38.50;99.90
37528;DHT22;23372;52.050;4.810;2023-08-21T08:08:58;37.70;99.90
37528;DHT22;23372;52.050;4.810;2023-08-21T08:11:24;38.40;99.90
37528;DHT22;23372;52.050;4.810;2023-08-21T08:13:49;38.50;99.90
37528;DHT22;23372;52.050;4.810;2023-08-21T08:16:15;37.90;99.90
37528;DHT22;23372;52.050;4.810;2023-08-21T08:18:42;38.30;99.90
37528;DHT22;23372;52.050;4.810;2023-08-21T08:21:07;38.00;99.90
37528;DHT22;23372;52.050;4.810;2023-08-21T08:23:34;37.90;99.90
37528;DHT22;23372;52.050;4.810;2023-08-21T08:26:00;38.30;99.90
37528;DHT22;23372;52.050;4.810;2023-08-21T08:28:25;38.40;99.90
37528;DHT22;23372;52.050;4.810;2023-08-21T08:30:51;38.10;99.90
37528;DHT22;23372;52.050;4.810;2023-08-21T08:33:16;37.80;99.90
37528;DHT22;23372;52.050;4.810;2023-08-21T08:35:42;37.50;99.90
37528;DHT22;23372;52.050;4.810;2023-08-21T08:38:08;38.10;99.90
37528;DHT22;23372;52.050;4.810;2023-08-21T08:40:37;37.80;99.90
37528;DHT22;23372;52.050;4.810;2023-08-21T08:43:03;37.80;99.90
37528;DHT22;23372;52.050;4.810;2023-08-21T08:45:32;37.40;99.90
37528;DHT22;23372;52.050;4.810;2023-08-21T08:47:59;36.60;99.90
37528;DHT22;23372;52.050;4.810;2023-08-21T08:50:29;36.80;99.90
37528;DHT22;23372;52.050;4.810;2023-08-21T08:52:56;36.30;99.90
37528;DHT22;23372;52.050;4.810;2023-08-21T08:55:22;36.40;99.90
37528;DHT22;23372;52.050;4.810;2023-08-21T08:57:48;35.50;99.90
37528;DHT22;23372;52.050;4.810;2023-08-21T09:00:14;34.10;99.90
37528;DHT22;23372;52.050;4.810;2023-08-21T09:02:39;32.80;99.90
37528;DHT22;23372;52.050;4.810;2023-08-21T09:05:05;32.30;99.90
37528;DHT22;23372;52.050;4.810;2023-08-21T09:07:32;31.30;99.90
37528;DHT22;23372;52.050;4.810;2023-08-21T09:09:57;30.60;99.90
37528;DHT22;23372;52.050;4.810;2023-08-21T09:12:23;29.70;99.90
37528;DHT22;23372;52.050;4.810;2023-08-21T09:14:48;28.90;99.90
37528;DHT22;23372;52.050;4.810;2023-08-21T09:17:15;28.40;99.90
37528;DHT22;23372;52.050;4.810;2023-08-21T09:19:41;27.90;99.90
37528;DHT22;23372;52.050;4.810;2023-08-21T09:24:40;27.70;99.90
37528;DHT22;23372;52.050;4.810;2023-08-21T09:27:13;27.40;99.90
37528;DHT22;23372;52.050;4.810;2023-08-21T09:29:40;27.30;99.90
37528;DHT22;23372;52.050;4.810;2023-08-21T09:32:06;27.20;99.90
37528;DHT22;23372;52.050;4.810;2023-08-21T09:34:36;27.20;99.90
37528;DHT22;23372;52.050;4.810;2023-08-21T09:37:05;27.00;99.90
37528;DHT22;23372;52.050;4.810;2023-08-21T09:39:35;27.10;99.90
37528;DHT22;23372;52.050;4.810;2023-08-21T09:42:08;27.10;99.90
37528;DHT22;23372;52.050;4.810;2023-08-21T09:44:40;27.30;99.90
37528;DHT22;23372;52.050;4.810;2023-08-21T09:47:12;27.60;99.90
37528;DHT22;23372;52.050;4.810;2023-08-21T09:49:39;27.60;99.90
37528;DHT22;23372;52.050;4.810;2023-08-21T09:52:08;27.70;99.90
37528;DHT22;23372;52.050;4.810;2023-08-21T09:54:36;27.90;99.90
37528;DHT22;23372;52.050;4.810;2023-08-21T09:57:04;28.00;99.90
37528;DHT22;23372;52.050;4.810;2023-08-21T09:59:30;28.00;99.90
37528;DHT22;23372;52.050;4.810;2023-08-21T10:01:58;27.60;99.90
37528;DHT22;23372;52.050;4.810;2023-08-21T10:04:25;27.90;99.90
37528;DHT22;23372;52.050;4.810;2023-08-21T10:06:51;28.10;99.90
37528;DHT22;23372;52.050;4.810;2023-08-21T10:09:20;28.30;99.90
37528;DHT22;23372;52.050;4.810;2023-08-21T10:11:46;28.50;99.90
37528;DHT22;23372;52.050;4.810;2023-08-21T10:14:13;28.70;99.90
37528;DHT22;23372;52.050;4.810;2023-08-21T10:16:38;28.80;99.90
37528;DHT22;23372;52.050;4.810;2023-08-21T10:19:04;28.70;99.90
37528;DHT22;23372;52.050;4.810;2023-08-21T10:21:35;28.60;99.90
37528;DHT22;23372;52.050;4.810;2023-08-21T10:24:01;28.90;99.90
37528;DHT22;23372;52.050;4.810;2023-08-21T10:26:27;28.30;99.90
37528;DHT22;23372;52.050;4.810;2023-08-21T10:29:00;28.50;99.90
37528;DHT22;23372;52.050;4.810;2023-08-21T10:31:35;28.60;99.90
37528;DHT22;23372;52.050;4.810;2023-08-21T10:34:03;28.80;99.90
37528;DHT22;23372;52.050;4.810;2023-08-21T10:39:26;28.40;99.90
37528;DHT22;23372;52.050;4.810;2023-08-21T10:42:10;28.30;99.90
37528;DHT22;23372;52.050;4.810;2023-08-21T10:47:22;28.80;99.90
37528;DHT22;23372;52.050;4.810;2023-08-21T10:50:00;29.20;99.90
37528;DHT22;23372;52.050;4.810;2023-08-21T10:52:29;29.20;99.90
37528;DHT22;23372;52.050;4.810;2023-08-21T10:54:58;29.00;99.90
37528;DHT22;23372;52.050;4.810;2023-08-21T10:57:25;29.00;99.90
37528;DHT22;23372;52.050;4.810;2023-08-21T10:59:55;29.10;99.90
37528;DHT22;23372;52.050;4.810;2023-08-21T11:02:22;29.10;99.90
37528;DHT22;23372;52.050;4.810;2023-08-21T11:04:49;29.00;99.90
37528;DHT22;23372;52.050;4.810;2023-08-21T11:07:15;29.20;99.90
37528;DHT22;23372;52.050;4.810;2023-08-21T11:09:40;29.20;99.90
37528;DHT22;23372;52.050;4.810;2023-08-21T11:12:08;29.20;99.90
37528;DHT22;23372;52.050;4.810;2023-08-21T11:14:34;28.80;99.90
37528;DHT22;23372;52.050;4.810;2023-08-21T11:17:00;29.20;99.90
37528;DHT22;23372;52.050;4.810;2023-08-21T11:19:26;29.30;99.90
37528;DHT22;23372;52.050;4.810;2023-08-21T11:21:52;29.20;99.90
37528;DHT22;23372;52.050;4.810;2023-08-21T11:24:17;29.20;99.90
37528;DHT22;23372;52.050;4.810;2023-08-21T11:26:43;29.30;99.90
37528;DHT22;23372;52.050;4.810;2023-08-21T11:29:08;29.20;99.90
37528;DHT22;23372;52.050;4.810;2023-08-21T11:31:34;29.20;99.90
37528;DHT22;23372;52.050;4.810;2023-08-21T11:34:00;29.40;99.90
37528;DHT22;23372;52.050;4.810;2023-08-21T11:36:25;29.60;99.90
37528;DHT22;23372;52.050;4.810;2023-08-21T11:39:01;29.80;99.90
37528;DHT22;23372;52.050;4.810;2023-08-21T11:41:29;29.80;99.90
37528;DHT22;23372;52.050;4.810;2023-08-21T11:44:02;29.80;99.90
37528;DHT22;23372;52.050;4.810;2023-08-21T11:46:29;29.50;99.90
37528;DHT22;23372;52.050;4.810;2023-08-21T11:48:54;29.30;99.90
37528;DHT22;23372;52.050;4.810;2023-08-21T11:51:20;29.70;99.90
37528;DHT22;23372;52.050;4.810;2023-08-21T11:53:47;29.70;99.90
37528;DHT22;23372;52.050;4.810;2023-08-21T11:56:17;29.50;99.90
37528;DHT22;23372;52.050;4.810;2023-08-21T11:58:46;29.80;99.90
37528;DHT22;23372;52.050;4.810;2023-08-21T12:01:16;29.80;99.90
37528;DHT22;23372;52.050;4.810;2023-08-21T12:03:43;30.00;99.90
37528;DHT22;23372;52.050;4.810;2023-08-21T12:06:11;30.10;99.90
37528;DHT22;23372;52.050;4.810;2023-08-21T12:08:38;29.80;99.90
37528;DHT22;23372;52.050;4.810;2023-08-21T12:11:05;29.40;99.90
37528;DHT22;23372;52.050;4.810;2023-08-21T12:13:31;29.40;99.90
37528;DHT22;23372;52.050;4.810;2023-08-21T12:15:57;29.70;99.90
37528;DHT22;23372;52.050;4.810;2023-08-21T12:18:23;29.60;99.90
37528;DHT22;23372;52.050;4.810;2023-08-21T12:20:49;29.70;99.90
37528;DHT22;23372;52.050;4.810;2023-08-21T12:23:14;29.70;99.90
37528;DHT22;23372;52.050;4.810;2023-08-21T12:25:40;29.80;99.90
37528;DHT22;23372;52.050;4.810;2023-08-21T12:28:07;29.60;99.90
37528;DHT22;23372;52.050;4.810;2023-08-21T12:30:34;29.90;99.90
37528;DHT22;23372;52.050;4.810;2023-08-21T12:32:59;30.00;99.90
37528;DHT22;23372;52.050;4.810;2023-08-21T12:35:25;30.10;99.90
37528;DHT22;23372;52.050;4.810;2023-08-21T12:37:50;29.80;99.90
37528;DHT22;23372;52.050;4.810;2023-08-21T12:40:16;29.80;99.90
37528;DHT22;23372;52.050;4.810;2023-08-21T12:42:41;29.50;99.90
37528;DHT22;23372;52.050;4.810;2023-08-21T12:45:07;29.50;99.90
37528;DHT22;23372;52.050;4.810;2023-08-21T12:47:33;29.40;99.90
37528;DHT22;23372;52.050;4.810;2023-08-21T12:49:58;29.60;99.90
37528;DHT22;23372;52.050;4.810;2023-08-21T12:52:24;29.30;99.90
37528;DHT22;23372;52.050;4.810;2023-08-21T12:54:50;29.50;99.90
37528;DHT22;23372;52.050;4.810;2023-08-21T12:57:15;29.70;99.90
37528;DHT22;23372;52.050;4.810;2023-08-21T12:59:42;29.60;99.90
37528;DHT22;23372;52.050;4.810;2023-08-21T13:02:08;29.70;99.90
37528;DHT22;23372;52.050;4.810;2023-08-21T13:04:33;29.50;99.90
37528;DHT22;23372;52.050;4.810;2023-08-21T13:06:59;29.50;99.90
37528;DHT22;23372;52.050;4.810;2023-08-21T13:09:25;29.10;99.90
37528;DHT22;23372;52.050;4.810;2023-08-21T13:11:51;29.30;99.90
37528;DHT22;23372;52.050;4.810;2023-08-21T13:14:17;29.10;99.90
37528;DHT22;23372;52.050;4.810;2023-08-21T13:16:42;29.00;99.90
37528;DHT22;23372;52.050;4.810;2023-08-21T13:19:08;29.10;99.90
37528;DHT22;23372;52.050;4.810;2023-08-21T13:21:33;29.10;99.90
37528;DHT22;23372;52.050;4.810;2023-08-21T13:23:59;29.10;99.90
37528;DHT22;23372;52.050;4.810;2023-08-21T13:26:24;29.00;99.90
37528;DHT22;23372;52.050;4.810;2023-08-21T13:28:51;29.00;99.90
37528;DHT22;23372;52.050;4.810;2023-08-21T13:31:18;28.90;99.90
37528;DHT22;23372;52.050;4.810;2023-08-21T13:33:45;28.80;99.90
37528;DHT22;23372;52.050;4.810;2023-08-21T13:36:10;28.90;99.90
37528;DHT22;23372;52.050;4.810;2023-08-21T13:38:36;28.80;99.90
37528;DHT22;23372;52.050;4.810;2023-08-21T13:41:02;28.60;99.90
37528;DHT22;23372;52.050;4.810;2023-08-21T13:43:27;28.60;99.90
37528;DHT22;23372;52.050;4.810;2023-08-21T13:45:53;28.30;99.90
37528;DHT22;23372;52.050;4.810;2023-08-21T13:48:18;28.20;99.90
37528;DHT22;23372;52.050;4.810;2023-08-21T13:50:44;27.90;99.90
37528;DHT22;23372;52.050;4.810;2023-08-21T13:53:09;28.00;99.90
37528;DHT22;23372;52.050;4.810;2023-08-21T13:55:35;28.10;99.90
37528;DHT22;23372;52.050;4.810;2023-08-21T13:58:00;28.10;99.90
37528;DHT22;23372;52.050;4.810;2023-08-21T14:00:26;28.10;99.90
37528;DHT22;23372;52.050;4.810;2023-08-21T14:02:51;28.10;99.90
37528;DHT22;23372;52.050;4.810;2023-08-21T14:05:17;28.00;99.90
37528;DHT22;23372;52.050;4.810;2023-08-21T14:07:43;28.00;99.90
37528;DHT22;23372;52.050;4.810;2023-08-21T14:10:09;27.90;99.90
37528;DHT22;23372;52.050;4.810;2023-08-21T14:12:34;28.00;99.90
37528;DHT22;23372;52.050;4.810;2023-08-21T14:15:00;28.00;99.90
37528;DHT22;23372;52.050;4.810;2023-08-21T14:17:27;27.70;99.90
37528;DHT22;23372;52.050;4.810;2023-08-21T14:19:53;27.70;99.90
37528;DHT22;23372;52.050;4.810;2023-08-21T14:22:19;27.80;99.90
37528;DHT22;23372;52.050;4.810;2023-08-21T14:24:44;27.90;99.90
37528;DHT22;23372;52.050;4.810;2023-08-21T14:27:10;27.90;99.90
37528;DHT22;23372;52.050;4.810;2023-08-21T14:29:35;28.00;99.90
37528;DHT22;23372;52.050;4.810;2023-08-21T14:32:01;28.00;99.90
37528;DHT22;23372;52.050;4.810;2023-08-21T14:34:27;27.70;99.90
37528;DHT22;23372;52.050;4.810;2023-08-21T14:36:53;27.90;99.90
37528;DHT22;23372;52.050;4.810;2023-08-21T14:39:23;27.60;99.90
37528;DHT22;23372;52.050;4.810;2023-08-21T14:41:56;27.60;99.90
37528;DHT22;23372;52.050;4.810;2023-08-21T14:44:23;27.40;99.90
37528;DHT22;23372;52.050;4.810;2023-08-21T14:46:48;27.40;99.90
37528;DHT22;23372;52.050;4.810;2023-08-21T14:49:14;27.70;99.90
37528;DHT22;23372;52.050;4.810;2023-08-21T14:51:39;27.40;99.90
37528;DHT22;23372;52.050;4.810;2023-08-21T14:54:05;27.60;99.90
37528;DHT22;23372;52.050;4.810;2023-08-21T14:56:31;27.20;99.90
37528;DHT22;23372;52.050;4.810;2023-08-21T14:58:58;27.30;99.90
37528;DHT22;23372;52.050;4.810;2023-08-21T15:01:24;27.50;99.90
37528;DHT22;23372;52.050;4.810;2023-08-21T15:03:49;27.80;99.90
37528;DHT22;23372;52.050;4.810;2023-08-21T15:06:15;27.70;99.90
37528;DHT22;23372;52.050;4.810;2023-08-21T15:08:42;27.60;99.90
37528;DHT22;23372;52.050;4.810;2023-08-21T15:11:08;27.40;99.90
37528;DHT22;23372;52.050;4.810;2023-08-21T15:13:37;27.60;99.90
37528;DHT22;23372;52.050;4.810;2023-08-21T15:16:03;27.70;99.90
37528;DHT22;23372;52.050;4.810;2023-08-21T15:18:29;27.80;99.90
37528;DHT22;23372;52.050;4.810;2023-08-21T15:20:55;27.80;99.90
37528;DHT22;23372;52.050;4.810;2023-08-21T15:23:20;27.60;99.90
37528;DHT22;23372;52.050;4.810;2023-08-21T15:25:46;27.40;99.90
37528;DHT22;23372;52.050;4.810;2023-08-21T15:28:11;27.60;99.90
37528;DHT22;23372;52.050;4.810;2023-08-21T15:30:37;27.70;99.90
37528;DHT22;23372;52.050;4.810;2023-08-21T15:33:03;27.00;99.90
37528;DHT22;23372;52.050;4.810;2023-08-21T15:35:28;27.30;99.90